sensor_id;sensor_type;location;lat;lon;timestamp;P1;durP1;ratioP1;P2;durP2;ratioP2
12267;SDS011;6196;48.398;11.736;2023-03-31T00:00:45;3.77;;;2.60;;
12267;SDS011;6196;48.398;11.736;2023-03-31T00:03:17;3.80;;;2.57;;
12267;SDS011;6196;48.398;11.736;2023-03-31T00:05:48;5.90;;;2.73;;
12267;SDS011;6196;48.398;11.736;2023-03-31T00:08:19;4.47;;;3.03;;
12267;SDS011;6196;48.398;11.736;2023-03-31T00:10:46;5.13;;;2.83;;
12267;SDS011;6196;48.398;11.736;2023-03-31T00:13:14;6.13;;;3.27;;
12267;SDS011;6196;48.398;11.736;2023-03-31T00:15:41;4.47;;;3.03;;
12267;SDS011;6196;48.398;11.736;2023-03-31T00:18:09;4.83;;;2.80;;
12267;SDS011;6196;48.398;11.736;2023-03-31T00:20:36;6.00;;;2.93;;
12267;SDS011;6196;48.398;11.736;2023-03-31T00:23:03;4.63;;;2.80;;
12267;SDS011;6196;48.398;11.736;2023-03-31T00:25:39;3.63;;;2.60;;
12267;SDS011;6196;48.398;11.736;2023-03-31T00:28:06;5.07;;;3.00;;
12267;SDS011;6196;48.398;11.736;2023-03-31T00:30:33;7.73;;;2.73;;
12267;SDS011;6196;48.398;11.736;2023-03-31T00:33:00;4.63;;;2.60;;
12267;SDS011;6196;48.398;11.736;2023-03-31T00:35:27;5.50;;;2.63;;
12267;SDS011;6196;48.398;11.736;2023-03-31T00:37:54;6.67;;;3.03;;
12267;SDS011;6196;48.398;11.736;2023-03-31T00:40:23;4.13;;;3.00;;
12267;SDS011;6196;48.398;11.736;2023-03-31T00:42:50;4.13;;;2.93;;
12267;SDS011;6196;48.398;11.736;2023-03-31T00:45:21;3.80;;;2.57;;
12267;SDS011;6196;48.398;11.736;2023-03-31T00:48:27;4.93;;;2.70;;
12267;SDS011;6196;48.398;11.736;2023-03-31T00:50:51;5.67;;;3.03;;
12267;SDS011;6196;48.398;11.736;2023-03-31T00:53:21;3.23;;;2.93;;
12267;SDS011;6196;48.398;11.736;2023-03-31T00:55:56;5.80;;;3.10;;
12267;SDS011;6196;48.398;11.736;2023-03-31T00:58:33;5.93;;;3.77;;
12267;SDS011;6196;48.398;11.736;2023-03-31T01:01:00;6.10;;;3.30;;
12267;SDS011;6196;48.398;11.736;2023-03-31T01:03:30;4.37;;;3.47;;
12267;SDS011;6196;48.398;11.736;2023-03-31T01:06:02;6.77;;;3.40;;
12267;SDS011;6196;48.398;11.736;2023-03-31T01:08:31;5.23;;;3.70;;
12267;SDS011;6196;48.398;11.736;2023-03-31T01:11:03;5.73;;;3.20;;
12267;SDS011;6196;48.398;11.736;2023-03-31T01:13:33;5.20;;;4.07;;
12267;SDS011;6196;48.398;11.736;2023-03-31T01:16:02;4.93;;;3.57;;
12267;SDS011;6196;48.398;11.736;2023-03-31T01:18:30;6.87;;;4.20;;
12267;SDS011;6196;48.398;11.736;2023-03-31T01:30:35;4.30;;;3.67;;
12267;SDS011;6196;48.398;11.736;2023-03-31T01:33:26;6.93;;;4.20;;
12267;SDS011;6196;48.398;11.736;2023-03-31T01:39:15;6.20;;;4.23;;
12267;SDS011;6196;48.398;11.736;2023-03-31T01:48:16;5.90;;;3.60;;
12267;SDS011;6196;48.398;11.736;2023-03-31T01:51:51;6.73;;;3.93;;
12267;SDS011;6196;48.398;11.736;2023-03-31T01:57:40;8.10;;;4.40;;
12267;SDS011;6196;48.398;11.736;2023-03-31T02:00:17;5.70;;;4.40;;
12267;SDS011;6196;48.398;11.736;2023-03-31T02:03:16;9.93;;;4.80;;
12267;SDS011;6196;48.398;11.736;2023-03-31T02:05:49;6.03;;;4.37;;
12267;SDS011;6196;48.398;11.736;2023-03-31T02:08:34;5.70;;;4.73;;
12267;SDS011;6196;48.398;11.736;2023-03-31T02:11:09;5.50;;;4.53;;
12267;SDS011;6196;48.398;11.736;2023-03-31T02:13:37;7.97;;;4.67;;
12267;SDS011;6196;48.398;11.736;2023-03-31T02:16:08;6.13;;;5.20;;
12267;SDS011;6196;48.398;11.736;2023-03-31T02:18:41;6.50;;;4.93;;
12267;SDS011;6196;48.398;11.736;2023-03-31T02:21:11;7.67;;;4.80;;
12267;SDS011;6196;48.398;11.736;2023-03-31T02:23:39;10.27;;;5.17;;
12267;SDS011;6196;48.398;11.736;2023-03-31T02:26:09;5.40;;;4.90;;
12267;SDS011;6196;48.398;11.736;2023-03-31T02:28:40;5.10;;;4.47;;
12267;SDS011;6196;48.398;11.736;2023-03-31T02:33:35;5.20;;;4.17;;
12267;SDS011;6196;48.398;11.736;2023-03-31T02:36:02;6.20;;;4.63;;
12267;SDS011;6196;48.398;11.736;2023-03-31T02:38:31;6.00;;;4.63;;
12267;SDS011;6196;48.398;11.736;2023-03-31T02:41:05;6.43;;;4.33;;
12267;SDS011;6196;48.398;11.736;2023-03-31T02:43:32;8.90;;;5.00;;
12267;SDS011;6196;48.398;11.736;2023-03-31T02:45:59;6.37;;;4.53;;
12267;SDS011;6196;48.398;11.736;2023-03-31T02:48:30;6.07;;;4.67;;
12267;SDS011;6196;48.398;11.736;2023-03-31T02:54:17;7.53;;;4.20;;
12267;SDS011;6196;48.398;11.736;2023-03-31T02:57:11;6.77;;;4.70;;
12267;SDS011;6196;48.398;11.736;2023-03-31T03:00:10;7.57;;;4.80;;
12267;SDS011;6196;48.398;11.736;2023-03-31T03:03:04;7.43;;;4.97;;
12267;SDS011;6196;48.398;11.736;2023-03-31T03:05:49;6.47;;;4.70;;
12267;SDS011;6196;48.398;11.736;2023-03-31T03:09:12;7.57;;;5.13;;
12267;SDS011;6196;48.398;11.736;2023-03-31T03:15:00;5.23;;;4.63;;
12267;SDS011;6196;48.398;11.736;2023-03-31T03:17:40;5.20;;;4.27;;
12267;SDS011;6196;48.398;11.736;2023-03-31T03:20:10;6.67;;;4.33;;
12267;SDS011;6196;48.398;11.736;2023-03-31T03:22:39;6.90;;;4.80;;
12267;SDS011;6196;48.398;11.736;2023-03-31T03:25:07;9.33;;;5.40;;
12267;SDS011;6196;48.398;11.736;2023-03-31T03:27:38;6.70;;;5.20;;
12267;SDS011;6196;48.398;11.736;2023-03-31T03:30:06;6.17;;;4.77;;
12267;SDS011;6196;48.398;11.736;2023-03-31T03:32:36;6.43;;;5.07;;
12267;SDS011;6196;48.398;11.736;2023-03-31T03:35:04;5.77;;;4.67;;
12267;SDS011;6196;48.398;11.736;2023-03-31T03:37:32;6.03;;;5.03;;
12267;SDS011;6196;48.398;11.736;2023-03-31T03:39:59;9.47;;;5.93;;
12267;SDS011;6196;48.398;11.736;2023-03-31T03:42:26;9.03;;;5.73;;
12267;SDS011;6196;48.398;11.736;2023-03-31T03:44:53;8.70;;;5.80;;
12267;SDS011;6196;48.398;11.736;2023-03-31T03:47:20;11.67;;;5.63;;
12267;SDS011;6196;48.398;11.736;2023-03-31T03:49:46;9.63;;;6.00;;
12267;SDS011;6196;48.398;11.736;2023-03-31T03:52:14;7.83;;;5.47;;
12267;SDS011;6196;48.398;11.736;2023-03-31T03:54:41;10.67;;;5.17;;
12267;SDS011;6196;48.398;11.736;2023-03-31T03:57:08;13.13;;;5.87;;
12267;SDS011;6196;48.398;11.736;2023-03-31T03:59:36;8.73;;;4.77;;
12267;SDS011;6196;48.398;11.736;2023-03-31T04:02:02;9.50;;;5.33;;
12267;SDS011;6196;48.398;11.736;2023-03-31T04:04:29;7.80;;;4.90;;
12267;SDS011;6196;48.398;11.736;2023-03-31T04:06:56;9.77;;;5.30;;
12267;SDS011;6196;48.398;11.736;2023-03-31T04:09:23;8.37;;;5.03;;
12267;SDS011;6196;48.398;11.736;2023-03-31T04:11:50;9.17;;;5.40;;
12267;SDS011;6196;48.398;11.736;2023-03-31T04:14:17;6.60;;;4.77;;
12267;SDS011;6196;48.398;11.736;2023-03-31T04:16:44;10.20;;;5.73;;
12267;SDS011;6196;48.398;11.736;2023-03-31T04:19:12;10.53;;;5.33;;
12267;SDS011;6196;48.398;11.736;2023-03-31T04:21:42;6.40;;;4.90;;
12267;SDS011;6196;48.398;11.736;2023-03-31T04:24:15;11.33;;;5.10;;
12267;SDS011;6196;48.398;11.736;2023-03-31T04:26:47;8.63;;;5.20;;
12267;SDS011;6196;48.398;11.736;2023-03-31T04:29:16;10.17;;;5.10;;
12267;SDS011;6196;48.398;11.736;2023-03-31T04:31:45;8.73;;;5.30;;
12267;SDS011;6196;48.398;11.736;2023-03-31T04:34:13;11.17;;;5.60;;
12267;SDS011;6196;48.398;11.736;2023-03-31T04:36:44;10.50;;;5.47;;
12267;SDS011;6196;48.398;11.736;2023-03-31T04:39:17;9.00;;;5.00;;
12267;SDS011;6196;48.398;11.736;2023-03-31T04:41:56;9.00;;;5.17;;
12267;SDS011;6196;48.398;11.736;2023-03-31T04:44:24;7.97;;;5.33;;
12267;SDS011;6196;48.398;11.736;2023-03-31T04:46:51;9.23;;;5.33;;
12267;SDS011;6196;48.398;11.736;2023-03-31T04:49:18;9.00;;;5.07;;
12267;SDS011;6196;48.398;11.736;2023-03-31T04:51:45;8.27;;;5.70;;
12267;SDS011;6196;48.398;11.736;2023-03-31T04:54:12;7.20;;;5.30;;
12267;SDS011;6196;48.398;11.736;2023-03-31T04:56:39;10.47;;;5.57;;
12267;SDS011;6196;48.398;11.736;2023-03-31T04:59:06;11.37;;;6.20;;
12267;SDS011;6196;48.398;11.736;2023-03-31T05:01:33;9.73;;;6.27;;
12267;SDS011;6196;48.398;11.736;2023-03-31T05:04:02;7.77;;;6.23;;
12267;SDS011;6196;48.398;11.736;2023-03-31T05:06:30;11.93;;;6.47;;
12267;SDS011;6196;48.398;11.736;2023-03-31T05:08:58;10.20;;;6.90;;
12267;SDS011;6196;48.398;11.736;2023-03-31T05:11:25;11.43;;;6.77;;
12267;SDS011;6196;48.398;11.736;2023-03-31T05:13:52;10.53;;;7.37;;
12267;SDS011;6196;48.398;11.736;2023-03-31T05:16:19;11.63;;;7.33;;
12267;SDS011;6196;48.398;11.736;2023-03-31T05:18:46;12.53;;;7.27;;
12267;SDS011;6196;48.398;11.736;2023-03-31T05:21:18;10.77;;;6.73;;
12267;SDS011;6196;48.398;11.736;2023-03-31T05:23:46;11.17;;;7.10;;
12267;SDS011;6196;48.398;11.736;2023-03-31T05:26:14;10.27;;;6.40;;
12267;SDS011;6196;48.398;11.736;2023-03-31T05:28:41;10.07;;;6.90;;
12267;SDS011;6196;48.398;11.736;2023-03-31T05:31:08;11.17;;;7.17;;
12267;SDS011;6196;48.398;11.736;2023-03-31T05:33:38;11.20;;;7.07;;
12267;SDS011;6196;48.398;11.736;2023-03-31T05:36:07;7.77;;;6.27;;
12267;SDS011;6196;48.398;11.736;2023-03-31T05:38:38;12.53;;;6.73;;
12267;SDS011;6196;48.398;11.736;2023-03-31T05:41:05;9.23;;;6.13;;
12267;SDS011;6196;48.398;11.736;2023-03-31T05:43:34;10.40;;;6.70;;
12267;SDS011;6196;48.398;11.736;2023-03-31T05:46:03;10.67;;;6.93;;
12267;SDS011;6196;48.398;11.736;2023-03-31T05:48:32;13.07;;;7.37;;
12267;SDS011;6196;48.398;11.736;2023-03-31T05:50:59;11.63;;;7.00;;
12267;SDS011;6196;48.398;11.736;2023-03-31T05:53:26;10.77;;;7.13;;
12267;SDS011;6196;48.398;11.736;2023-03-31T05:55:57;10.40;;;6.53;;
12267;SDS011;6196;48.398;11.736;2023-03-31T05:58:27;13.80;;;7.33;;
12267;SDS011;6196;48.398;11.736;2023-03-31T06:03:34;10.90;;;7.37;;
12267;SDS011;6196;48.398;11.736;2023-03-31T06:06:03;10.47;;;6.63;;
12267;SDS011;6196;48.398;11.736;2023-03-31T06:08:31;12.17;;;7.03;;
12267;SDS011;6196;48.398;11.736;2023-03-31T06:10:58;13.63;;;8.77;;
12267;SDS011;6196;48.398;11.736;2023-03-31T06:13:26;13.17;;;7.10;;
12267;SDS011;6196;48.398;11.736;2023-03-31T06:15:53;14.67;;;7.43;;
12267;SDS011;6196;48.398;11.736;2023-03-31T06:18:22;10.93;;;7.13;;
12267;SDS011;6196;48.398;11.736;2023-03-31T06:20:50;10.97;;;7.57;;
12267;SDS011;6196;48.398;11.736;2023-03-31T06:23:17;13.53;;;7.70;;
12267;SDS011;6196;48.398;11.736;2023-03-31T06:25:44;13.47;;;7.13;;
12267;SDS011;6196;48.398;11.736;2023-03-31T06:28:16;13.03;;;7.00;;
12267;SDS011;6196;48.398;11.736;2023-03-31T06:30:45;10.07;;;6.60;;
12267;SDS011;6196;48.398;11.736;2023-03-31T06:33:12;11.73;;;6.20;;
12267;SDS011;6196;48.398;11.736;2023-03-31T06:35:39;11.63;;;6.03;;
12267;SDS011;6196;48.398;11.736;2023-03-31T06:38:07;10.30;;;7.10;;
12267;SDS011;6196;48.398;11.736;2023-03-31T06:40:34;10.30;;;7.33;;
12267;SDS011;6196;48.398;11.736;2023-03-31T06:43:01;9.43;;;6.80;;
12267;SDS011;6196;48.398;11.736;2023-03-31T06:45:28;8.67;;;6.87;;
12267;SDS011;6196;48.398;11.736;2023-03-31T06:47:55;17.20;;;11.13;;
12267;SDS011;6196;48.398;11.736;2023-03-31T06:50:22;12.03;;;9.00;;
12267;SDS011;6196;48.398;11.736;2023-03-31T06:52:49;15.87;;;12.17;;
12267;SDS011;6196;48.398;11.736;2023-03-31T06:55:18;14.23;;;8.33;;
12267;SDS011;6196;48.398;11.736;2023-03-31T06:57:45;12.00;;;7.20;;
12267;SDS011;6196;48.398;11.736;2023-03-31T07:00:12;9.63;;;6.43;;
12267;SDS011;6196;48.398;11.736;2023-03-31T07:02:39;11.13;;;6.47;;
12267;SDS011;6196;48.398;11.736;2023-03-31T07:05:06;11.60;;;6.10;;
12267;SDS011;6196;48.398;11.736;2023-03-31T07:07:33;10.80;;;6.13;;
12267;SDS011;6196;48.398;11.736;2023-03-31T07:10:00;9.73;;;6.20;;
12267;SDS011;6196;48.398;11.736;2023-03-31T07:12:27;11.00;;;7.00;;
12267;SDS011;6196;48.398;11.736;2023-03-31T07:14:54;12.60;;;6.83;;
12267;SDS011;6196;48.398;11.736;2023-03-31T07:17:21;10.43;;;6.10;;
12267;SDS011;6196;48.398;11.736;2023-03-31T07:19:50;11.40;;;6.83;;
12267;SDS011;6196;48.398;11.736;2023-03-31T07:22:17;10.80;;;7.20;;
12267;SDS011;6196;48.398;11.736;2023-03-31T07:24:44;11.57;;;6.90;;
12267;SDS011;6196;48.398;11.736;2023-03-31T07:27:11;9.83;;;6.70;;
12267;SDS011;6196;48.398;11.736;2023-03-31T07:29:38;14.90;;;7.37;;
12267;SDS011;6196;48.398;11.736;2023-03-31T07:32:05;13.00;;;7.57;;
12267;SDS011;6196;48.398;11.736;2023-03-31T07:34:31;10.20;;;7.80;;
12267;SDS011;6196;48.398;11.736;2023-03-31T07:37:02;10.67;;;8.10;;
12267;SDS011;6196;48.398;11.736;2023-03-31T07:39:28;11.83;;;7.23;;
12267;SDS011;6196;48.398;11.736;2023-03-31T07:41:56;10.40;;;8.50;;
12267;SDS011;6196;48.398;11.736;2023-03-31T07:44:22;10.90;;;8.63;;
12267;SDS011;6196;48.398;11.736;2023-03-31T07:46:49;18.30;;;14.23;;
12267;SDS011;6196;48.398;11.736;2023-03-31T07:49:16;17.23;;;11.43;;
12267;SDS011;6196;48.398;11.736;2023-03-31T07:51:43;11.13;;;8.10;;
12267;SDS011;6196;48.398;11.736;2023-03-31T07:54:10;13.13;;;9.53;;
12267;SDS011;6196;48.398;11.736;2023-03-31T07:56:37;14.63;;;9.80;;
12267;SDS011;6196;48.398;11.736;2023-03-31T07:59:04;13.23;;;9.10;;
12267;SDS011;6196;48.398;11.736;2023-03-31T08:01:31;12.23;;;8.47;;
12267;SDS011;6196;48.398;11.736;2023-03-31T08:03:58;10.13;;;8.20;;
12267;SDS011;6196;48.398;11.736;2023-03-31T08:06:26;11.23;;;8.43;;
12267;SDS011;6196;48.398;11.736;2023-03-31T08:08:54;11.33;;;7.87;;
12267;SDS011;6196;48.398;11.736;2023-03-31T08:11:22;9.47;;;7.20;;
12267;SDS011;6196;48.398;11.736;2023-03-31T08:13:51;12.63;;;8.80;;
12267;SDS011;6196;48.398;11.736;2023-03-31T08:16:18;10.60;;;7.87;;
12267;SDS011;6196;48.398;11.736;2023-03-31T08:18:45;11.10;;;7.87;;
12267;SDS011;6196;48.398;11.736;2023-03-31T08:21:12;13.13;;;7.80;;
12267;SDS011;6196;48.398;11.736;2023-03-31T08:23:39;10.40;;;7.33;;
12267;SDS011;6196;48.398;11.736;2023-03-31T08:26:15;9.73;;;7.67;;
12267;SDS011;6196;48.398;11.736;2023-03-31T08:28:46;11.37;;;7.47;;
12267;SDS011;6196;48.398;11.736;2023-03-31T08:31:14;10.40;;;7.33;;
12267;SDS011;6196;48.398;11.736;2023-03-31T08:33:44;12.63;;;7.50;;
12267;SDS011;6196;48.398;11.736;2023-03-31T08:36:12;9.87;;;6.83;;
12267;SDS011;6196;48.398;11.736;2023-03-31T08:38:40;9.20;;;6.67;;
12267;SDS011;6196;48.398;11.736;2023-03-31T08:41:20;8.00;;;7.10;;
12267;SDS011;6196;48.398;11.736;2023-03-31T08:47:17;8.90;;;6.50;;
12267;SDS011;6196;48.398;11.736;2023-03-31T08:49:53;11.13;;;7.20;;
12267;SDS011;6196;48.398;11.736;2023-03-31T08:52:31;10.27;;;6.90;;
12267;SDS011;6196;48.398;11.736;2023-03-31T08:55:27;8.93;;;7.17;;
12267;SDS011;6196;48.398;11.736;2023-03-31T08:57:58;8.93;;;7.00;;
12267;SDS011;6196;48.398;11.736;2023-03-31T09:16:14;9.13;;;5.57;;
12267;SDS011;6196;48.398;11.736;2023-03-31T09:18:53;6.47;;;4.93;;
12267;SDS011;6196;48.398;11.736;2023-03-31T09:21:31;7.40;;;5.30;;
12267;SDS011;6196;48.398;11.736;2023-03-31T09:26:48;9.97;;;6.73;;
12267;SDS011;6196;48.398;11.736;2023-03-31T09:29:34;9.20;;;6.10;;
12267;SDS011;6196;48.398;11.736;2023-03-31T09:32:19;9.87;;;6.37;;
12267;SDS011;6196;48.398;11.736;2023-03-31T09:34:51;10.73;;;6.70;;
12267;SDS011;6196;48.398;11.736;2023-03-31T09:37:24;10.40;;;6.27;;
12267;SDS011;6196;48.398;11.736;2023-03-31T09:39:58;10.47;;;6.33;;
12267;SDS011;6196;48.398;11.736;2023-03-31T09:42:27;7.97;;;5.87;;
12267;SDS011;6196;48.398;11.736;2023-03-31T09:44:53;10.73;;;6.00;;
12267;SDS011;6196;48.398;11.736;2023-03-31T09:47:27;9.60;;;6.13;;
12267;SDS011;6196;48.398;11.736;2023-03-31T09:49:59;9.07;;;5.37;;
12267;SDS011;6196;48.398;11.736;2023-03-31T09:52:34;6.77;;;4.40;;
12267;SDS011;6196;48.398;11.736;2023-03-31T09:55:12;5.47;;;4.40;;
12267;SDS011;6196;48.398;11.736;2023-03-31T09:58:06;4.50;;;3.50;;
12267;SDS011;6196;48.398;11.736;2023-03-31T10:00:37;5.77;;;3.97;;
12267;SDS011;6196;48.398;11.736;2023-03-31T10:03:22;5.60;;;3.97;;
12267;SDS011;6196;48.398;11.736;2023-03-31T10:05:51;6.20;;;3.70;;
12267;SDS011;6196;48.398;11.736;2023-03-31T10:11:06;5.67;;;3.33;;
12267;SDS011;6196;48.398;11.736;2023-03-31T10:16:22;4.73;;;2.73;;
12267;SDS011;6196;48.398;11.736;2023-03-31T10:19:19;4.67;;;2.60;;
12267;SDS011;6196;48.398;11.736;2023-03-31T10:21:57;3.20;;;2.70;;
12267;SDS011;6196;48.398;11.736;2023-03-31T10:24:41;3.10;;;2.43;;
12267;SDS011;6196;48.398;11.736;2023-03-31T10:29:53;3.97;;;3.13;;
12267;SDS011;6196;48.398;11.736;2023-03-31T10:32:27;3.57;;;2.50;;
12267;SDS011;6196;48.398;11.736;2023-03-31T10:35:04;3.67;;;2.60;;
12267;SDS011;6196;48.398;11.736;2023-03-31T10:37:37;2.63;;;2.30;;
12267;SDS011;6196;48.398;11.736;2023-03-31T10:40:12;5.87;;;2.80;;
12267;SDS011;6196;48.398;11.736;2023-03-31T10:42:45;3.47;;;2.73;;
12267;SDS011;6196;48.398;11.736;2023-03-31T10:45:23;4.80;;;2.93;;
12267;SDS011;6196;48.398;11.736;2023-03-31T10:48:02;3.67;;;2.10;;
12267;SDS011;6196;48.398;11.736;2023-03-31T10:50:31;3.93;;;2.50;;
12267;SDS011;6196;48.398;11.736;2023-03-31T10:53:01;3.90;;;2.03;;
12267;SDS011;6196;48.398;11.736;2023-03-31T10:55:32;3.73;;;2.13;;
12267;SDS011;6196;48.398;11.736;2023-03-31T10:58:23;3.93;;;2.30;;
12267;SDS011;6196;48.398;11.736;2023-03-31T11:01:11;3.13;;;1.87;;
12267;SDS011;6196;48.398;11.736;2023-03-31T11:19:18;1.93;;;1.43;;
12267;SDS011;6196;48.398;11.736;2023-03-31T11:22:06;3.37;;;1.40;;
12267;SDS011;6196;48.398;11.736;2023-03-31T11:33:51;3.03;;;1.40;;
12267;SDS011;6196;48.398;11.736;2023-03-31T11:40:12;2.50;;;1.30;;
12267;SDS011;6196;48.398;11.736;2023-03-31T11:45:43;1.47;;;0.80;;
12267;SDS011;6196;48.398;11.736;2023-03-31T11:48:39;4.43;;;0.97;;
12267;SDS011;6196;48.398;11.736;2023-03-31T11:51:15;2.60;;;0.90;;
12267;SDS011;6196;48.398;11.736;2023-03-31T11:53:57;2.03;;;1.07;;
12267;SDS011;6196;48.398;11.736;2023-03-31T11:56:29;1.10;;;0.70;;
12267;SDS011;6196;48.398;11.736;2023-03-31T11:59:01;1.97;;;0.80;;
12267;SDS011;6196;48.398;11.736;2023-03-31T12:01:37;1.00;;;0.83;;
12267;SDS011;6196;48.398;11.736;2023-03-31T12:12:48;2.20;;;1.20;;
12267;SDS011;6196;48.398;11.736;2023-03-31T12:18:59;3.20;;;1.47;;
12267;SDS011;6196;48.398;11.736;2023-03-31T12:21:37;2.40;;;1.13;;
12267;SDS011;6196;48.398;11.736;2023-03-31T12:24:10;2.03;;;1.10;;
12267;SDS011;6196;48.398;11.736;2023-03-31T12:29:34;3.83;;;1.00;;
12267;SDS011;6196;48.398;11.736;2023-03-31T12:32:12;2.17;;;1.00;;
12267;SDS011;6196;48.398;11.736;2023-03-31T12:34:49;3.03;;;1.13;;
12267;SDS011;6196;48.398;11.736;2023-03-31T12:37:28;1.50;;;1.00;;
12267;SDS011;6196;48.398;11.736;2023-03-31T12:43:01;1.67;;;0.93;;
12267;SDS011;6196;48.398;11.736;2023-03-31T12:57:20;1.87;;;1.10;;
12267;SDS011;6196;48.398;11.736;2023-03-31T13:02:42;3.57;;;1.10;;
12267;SDS011;6196;48.398;11.736;2023-03-31T13:08:04;2.30;;;0.97;;
12267;SDS011;6196;48.398;11.736;2023-03-31T13:13:24;2.87;;;1.00;;
12267;SDS011;6196;48.398;11.736;2023-03-31T13:15:52;2.40;;;0.90;;
12267;SDS011;6196;48.398;11.736;2023-03-31T13:18:22;2.07;;;0.90;;
12267;SDS011;6196;48.398;11.736;2023-03-31T13:20:59;2.57;;;0.87;;
12267;SDS011;6196;48.398;11.736;2023-03-31T13:23:35;2.17;;;1.00;;
12267;SDS011;6196;48.398;11.736;2023-03-31T13:26:03;2.00;;;1.23;;
12267;SDS011;6196;48.398;11.736;2023-03-31T13:28:39;3.67;;;1.20;;
12267;SDS011;6196;48.398;11.736;2023-03-31T13:31:11;2.50;;;1.17;;
12267;SDS011;6196;48.398;11.736;2023-03-31T13:33:41;4.27;;;1.60;;
12267;SDS011;6196;48.398;11.736;2023-03-31T13:45:00;4.17;;;1.50;;
12267;SDS011;6196;48.398;11.736;2023-03-31T13:50:44;2.07;;;1.00;;
12267;SDS011;6196;48.398;11.736;2023-03-31T13:53:28;3.60;;;1.20;;
12267;SDS011;6196;48.398;11.736;2023-03-31T14:11:21;1.90;;;0.63;;
12267;SDS011;6196;48.398;11.736;2023-03-31T14:14:03;2.23;;;0.70;;
12267;SDS011;6196;48.398;11.736;2023-03-31T14:16:53;2.03;;;0.60;;
12267;SDS011;6196;48.398;11.736;2023-03-31T14:19:47;3.17;;;0.70;;
12267;SDS011;6196;48.398;11.736;2023-03-31T14:27:45;2.80;;;0.67;;
12267;SDS011;6196;48.398;11.736;2023-03-31T14:37:05;1.50;;;0.60;;
12267;SDS011;6196;48.398;11.736;2023-03-31T14:39:37;6.97;;;0.83;;
12267;SDS011;6196;48.398;11.736;2023-03-31T14:42:12;1.77;;;0.53;;
12267;SDS011;6196;48.398;11.736;2023-03-31T14:44:43;2.13;;;0.70;;
12267;SDS011;6196;48.398;11.736;2023-03-31T14:47:14;2.57;;;0.50;;
12267;SDS011;6196;48.398;11.736;2023-03-31T14:50:02;1.50;;;0.53;;
12267;SDS011;6196;48.398;11.736;2023-03-31T14:52:45;2.90;;;0.93;;
12267;SDS011;6196;48.398;11.736;2023-03-31T14:55:15;2.30;;;0.70;;
12267;SDS011;6196;48.398;11.736;2023-03-31T14:57:47;2.20;;;0.67;;
12267;SDS011;6196;48.398;11.736;2023-03-31T15:00:19;3.13;;;0.70;;
12267;SDS011;6196;48.398;11.736;2023-03-31T15:02:54;0.93;;;0.63;;
12267;SDS011;6196;48.398;11.736;2023-03-31T15:05:27;2.87;;;0.80;;
12267;SDS011;6196;48.398;11.736;2023-03-31T15:08:01;2.13;;;0.60;;
12267;SDS011;6196;48.398;11.736;2023-03-31T15:10:37;2.97;;;0.63;;
12267;SDS011;6196;48.398;11.736;2023-03-31T15:13:27;2.83;;;0.70;;
12267;SDS011;6196;48.398;11.736;2023-03-31T15:18:53;2.33;;;0.80;;
12267;SDS011;6196;48.398;11.736;2023-03-31T15:21:25;1.53;;;0.80;;
12267;SDS011;6196;48.398;11.736;2023-03-31T15:23:57;1.33;;;0.77;;
12267;SDS011;6196;48.398;11.736;2023-03-31T15:26:25;1.93;;;0.83;;
12267;SDS011;6196;48.398;11.736;2023-03-31T15:29:08;2.07;;;0.80;;
12267;SDS011;6196;48.398;11.736;2023-03-31T15:32:02;3.17;;;0.70;;
12267;SDS011;6196;48.398;11.736;2023-03-31T15:34:32;1.10;;;0.50;;
12267;SDS011;6196;48.398;11.736;2023-03-31T15:37:02;1.30;;;0.50;;
12267;SDS011;6196;48.398;11.736;2023-03-31T15:39:32;1.00;;;0.40;;
12267;SDS011;6196;48.398;11.736;2023-03-31T15:42:03;2.17;;;0.50;;
12267;SDS011;6196;48.398;11.736;2023-03-31T15:47:47;1.27;;;0.60;;
12267;SDS011;6196;48.398;11.736;2023-03-31T15:50:23;0.83;;;0.47;;
12267;SDS011;6196;48.398;11.736;2023-03-31T15:52:54;1.20;;;0.50;;
12267;SDS011;6196;48.398;11.736;2023-03-31T15:57:59;1.67;;;0.57;;
12267;SDS011;6196;48.398;11.736;2023-03-31T16:06:21;3.33;;;0.90;;
12267;SDS011;6196;48.398;11.736;2023-03-31T16:08:58;1.90;;;0.80;;
12267;SDS011;6196;48.398;11.736;2023-03-31T16:11:39;3.03;;;0.80;;
12267;SDS011;6196;48.398;11.736;2023-03-31T16:16:57;1.93;;;1.00;;
12267;SDS011;6196;48.398;11.736;2023-03-31T16:19:30;1.80;;;0.73;;
12267;SDS011;6196;48.398;11.736;2023-03-31T16:22:13;1.27;;;0.77;;
12267;SDS011;6196;48.398;11.736;2023-03-31T16:24:45;3.27;;;0.73;;
12267;SDS011;6196;48.398;11.736;2023-03-31T16:27:13;1.60;;;0.50;;
12267;SDS011;6196;48.398;11.736;2023-03-31T16:29:40;2.27;;;0.73;;
12267;SDS011;6196;48.398;11.736;2023-03-31T16:34:53;3.93;;;0.70;;
12267;SDS011;6196;48.398;11.736;2023-03-31T16:37:26;1.73;;;0.70;;
12267;SDS011;6196;48.398;11.736;2023-03-31T16:39:53;2.67;;;0.87;;
12267;SDS011;6196;48.398;11.736;2023-03-31T16:42:20;1.87;;;0.60;;
12267;SDS011;6196;48.398;11.736;2023-03-31T16:44:48;1.80;;;0.50;;
12267;SDS011;6196;48.398;11.736;2023-03-31T16:47:29;1.80;;;0.63;;
12267;SDS011;6196;48.398;11.736;2023-03-31T16:50:01;1.50;;;0.70;;
12267;SDS011;6196;48.398;11.736;2023-03-31T16:52:32;1.53;;;0.60;;
12267;SDS011;6196;48.398;11.736;2023-03-31T16:54:59;7.40;;;0.83;;
12267;SDS011;6196;48.398;11.736;2023-03-31T16:57:27;2.17;;;0.70;;
12267;SDS011;6196;48.398;11.736;2023-03-31T16:59:54;2.13;;;0.77;;
12267;SDS011;6196;48.398;11.736;2023-03-31T17:02:24;2.80;;;0.80;;
12267;SDS011;6196;48.398;11.736;2023-03-31T17:04:51;2.30;;;0.87;;
12267;SDS011;6196;48.398;11.736;2023-03-31T17:07:24;1.33;;;0.60;;
12267;SDS011;6196;48.398;11.736;2023-03-31T17:09:52;2.23;;;0.80;;
12267;SDS011;6196;48.398;11.736;2023-03-31T17:12:19;2.57;;;0.70;;
12267;SDS011;6196;48.398;11.736;2023-03-31T17:14:45;2.13;;;0.80;;
12267;SDS011;6196;48.398;11.736;2023-03-31T17:17:12;2.27;;;0.90;;
12267;SDS011;6196;48.398;11.736;2023-03-31T17:19:43;0.80;;;0.50;;
12267;SDS011;6196;48.398;11.736;2023-03-31T17:22:09;2.40;;;0.70;;
12267;SDS011;6196;48.398;11.736;2023-03-31T17:24:37;2.03;;;0.67;;
12267;SDS011;6196;48.398;11.736;2023-03-31T17:27:04;1.43;;;0.70;;
12267;SDS011;6196;48.398;11.736;2023-03-31T17:29:31;2.57;;;0.80;;
12267;SDS011;6196;48.398;11.736;2023-03-31T17:31:57;2.47;;;0.77;;
12267;SDS011;6196;48.398;11.736;2023-03-31T17:34:24;1.73;;;0.90;;
12267;SDS011;6196;48.398;11.736;2023-03-31T17:36:51;1.03;;;0.70;;
12267;SDS011;6196;48.398;11.736;2023-03-31T17:39:20;0.73;;;0.40;;
12267;SDS011;6196;48.398;11.736;2023-03-31T17:41:47;1.43;;;0.50;;
12267;SDS011;6196;48.398;11.736;2023-03-31T17:44:14;1.47;;;0.50;;
12267;SDS011;6196;48.398;11.736;2023-03-31T17:46:41;0.80;;;0.40;;
12267;SDS011;6196;48.398;11.736;2023-03-31T17:49:08;0.40;;;0.20;;
12267;SDS011;6196;48.398;11.736;2023-03-31T17:51:35;0.70;;;0.40;;
12267;SDS011;6196;48.398;11.736;2023-03-31T17:54:03;1.17;;;0.33;;
12267;SDS011;6196;48.398;11.736;2023-03-31T17:56:30;1.07;;;0.50;;
12267;SDS011;6196;48.398;11.736;2023-03-31T17:58:57;1.23;;;0.40;;
12267;SDS011;6196;48.398;11.736;2023-03-31T18:01:24;0.50;;;0.40;;
12267;SDS011;6196;48.398;11.736;2023-03-31T18:03:53;0.40;;;0.30;;
12267;SDS011;6196;48.398;11.736;2023-03-31T18:06:21;0.50;;;0.40;;
12267;SDS011;6196;48.398;11.736;2023-03-31T18:08:48;1.00;;;0.30;;
12267;SDS011;6196;48.398;11.736;2023-03-31T18:11:15;0.30;;;0.23;;
12267;SDS011;6196;48.398;11.736;2023-03-31T18:13:42;0.43;;;0.40;;
12267;SDS011;6196;48.398;11.736;2023-03-31T18:16:09;0.43;;;0.40;;
12267;SDS011;6196;48.398;11.736;2023-03-31T18:18:38;0.30;;;0.20;;
12267;SDS011;6196;48.398;11.736;2023-03-31T18:21:07;0.30;;;0.30;;
12267;SDS011;6196;48.398;11.736;2023-03-31T18:23:39;1.33;;;0.47;;